Terminal Aerodrome Forecast
Issued by NWS

Home | Current Version | Previous Version | Text Only | Print | Product List | Glossary Off
Versions: 1 2 3 4 5 6 7 8 9 10 11 12

475
FTUS43 KGRB 202325
TAFAUW
TAF
KAUW 202325Z 2100/2124 17007KT P6SM SCT250 WS010/19035KT
     FM211500 16010G18KT P6SM BKN150
     FM211900 17015G25KT P6SM SCT045 BKN120=

USA.gov is the U.S. government's official web portal to all federal, state and local government web resources and services.